createdAt,value
2019-04-05T00:03:42.256Z,42.83
2019-04-05T00:08:44.322Z,43.23
2019-04-05T00:13:46.422Z,43.70
2019-04-05T00:18:50.433Z,43.50
2019-04-05T00:23:54.416Z,42.87
2019-04-05T00:28:58.430Z,44.53
2019-04-05T00:34:02.398Z,46.30
2019-04-05T00:39:09.512Z,46.07
2019-04-05T00:44:11.612Z,43.23
2019-04-05T00:49:13.701Z,45.03
2019-04-05T00:54:15.798Z,42.33
2019-04-05T00:59:17.854Z,37.70
2019-04-05T01:04:19.926Z,42.47
2019-04-05T01:09:22.023Z,39.27
2019-04-05T01:14:24.901Z,39.83
2019-04-05T01:19:31.081Z,38.63
2019-04-05T01:24:33.889Z,41.03
2019-04-05T01:29:35.939Z,38.83
2019-04-05T01:34:38.091Z,38.67
2019-04-05T01:39:40.168Z,40.90
2019-04-05T01:44:43.602Z,41.70
2019-04-05T01:49:45.679Z,41.10
2019-04-05T01:54:47.732Z,42.23
2019-04-05T01:59:49.763Z,42.13
2019-04-05T02:04:52.957Z,42.70
2019-04-05T02:09:55.468Z,40.03
2019-04-05T02:14:57.551Z,42.53
2019-04-05T02:19:59.636Z,43.93
2019-04-05T02:25:01.770Z,41.73
2019-04-05T02:30:04.575Z,39.27
2019-04-05T02:35:07.471Z,41.20
2019-04-05T02:40:12.229Z,40.33
2019-04-05T02:45:16.280Z,40.10
2019-04-05T02:50:20.104Z,41.40
2019-04-05T02:55:24.562Z,45.90
2019-04-05T03:00:28.218Z,41.43
2019-04-05T03:05:30.767Z,40.40
2019-04-05T03:11:10.472Z,40.57
2019-04-05T03:16:17.374Z,44.77
2019-04-05T03:21:21.122Z,49.60
2019-04-05T03:26:26.795Z,52.63
2019-04-05T03:31:29.210Z,49.60
2019-04-05T03:36:31.685Z,52.67
2019-04-05T03:41:34.051Z,49.90
2019-04-05T03:46:36.414Z,50.00
2019-04-05T03:51:38.969Z,49.37
2019-04-05T03:56:41.321Z,50.37
2019-04-05T04:01:43.743Z,54.03
2019-04-05T04:06:46.242Z,52.60
2019-04-05T04:11:48.320Z,57.37
2019-04-05T04:17:13.709Z,49.33
2019-04-05T04:22:28.634Z,54.67
2019-04-05T04:27:31.117Z,49.23
2019-04-05T04:32:33.630Z,51.37
2019-04-05T04:37:36.194Z,48.50
2019-04-05T04:42:38.641Z,53.10
2019-04-05T04:47:42.737Z,49.87
2019-04-05T04:52:45.720Z,49.53
2019-04-05T04:57:47.781Z,52.17
2019-04-05T05:02:51.521Z,53.97
2019-04-05T05:07:54.425Z,54.80
2019-04-05T05:12:58.192Z,52.07
2019-04-05T05:18:00.482Z,50.77
2019-04-05T05:23:03.085Z,56.50
2019-04-05T05:28:05.883Z,51.83
2019-04-05T05:33:08.209Z,52.70
2019-04-05T05:38:10.405Z,55.53
2019-04-05T05:43:12.438Z,52.00
2019-04-05T05:48:14.999Z,52.47
2019-04-05T05:53:17.287Z,53.60
2019-04-05T05:58:19.456Z,48.97
2019-04-05T06:03:21.530Z,52.20
2019-04-05T06:08:23.701Z,49.10
2019-04-05T06:13:25.867Z,48.23
2019-04-05T06:18:27.969Z,51.33
2019-04-05T06:23:33.945Z,45.23
2019-04-05T06:28:34.130Z,46.90
2019-04-05T06:33:36.308Z,48.93
2019-04-05T06:38:38.654Z,50.53
2019-04-05T06:43:43.666Z,46.53
2019-04-05T06:48:45.801Z,42.77
2019-04-05T06:53:47.945Z,46.93
2019-04-05T06:58:50.037Z,47.40
2019-04-05T07:03:55.076Z,47.40
2019-04-05T07:08:56.276Z,45.60
2019-04-05T07:13:58.362Z,45.53
2019-04-05T07:19:00.572Z,47.10
2019-04-05T07:24:02.812Z,49.53
2019-04-05T07:29:05.035Z,44.17
2019-04-05T07:34:07.151Z,44.63
2019-04-05T07:39:09.241Z,44.20
2019-04-05T07:44:11.358Z,43.00
2019-04-05T07:49:13.474Z,45.27
2019-04-05T07:54:15.582Z,44.67
2019-04-05T07:59:20.698Z,43.93
2019-04-05T08:04:21.681Z,41.07
2019-04-05T08:09:25.636Z,43.87
2019-04-05T08:14:28.159Z,46.13
2019-04-05T08:19:30.222Z,46.13
2019-04-05T08:24:32.446Z,43.90
2019-04-05T08:29:34.528Z,43.03
2019-04-05T08:34:36.641Z,46.77
2019-04-05T08:39:38.801Z,44.83
2019-04-05T08:44:40.891Z,44.33
2019-04-05T08:49:43.014Z,45.73
2019-04-05T08:54:45.149Z,42.83
2019-04-05T08:59:47.267Z,42.17
2019-04-05T09:04:49.610Z,42.53
2019-04-05T09:09:51.657Z,42.20
2019-04-05T09:14:53.720Z,40.33
2019-04-05T09:19:57.662Z,40.03
2019-04-05T09:24:59.755Z,40.37
2019-04-05T09:30:01.832Z,40.70
2019-04-05T09:35:05.954Z,39.10
2019-04-05T09:40:09.861Z,39.60
2019-04-05T09:45:11.913Z,40.87
2019-04-05T09:50:14.619Z,37.33
2019-04-05T09:55:16.727Z,36.37
2019-04-05T10:00:22.938Z,38.27
2019-04-05T10:05:25.054Z,38.50
2019-04-05T10:10:27.135Z,37.33
2019-04-05T10:15:29.155Z,39.17
2019-04-05T10:20:31.268Z,40.93
2019-04-05T10:25:33.452Z,38.97
2019-04-05T10:30:35.609Z,40.33
2019-04-05T10:35:37.694Z,38.77
2019-04-05T10:40:39.760Z,39.97
2019-04-05T10:45:41.805Z,38.37
2019-04-05T10:50:43.771Z,39.40
2019-04-05T10:55:45.933Z,40.83
2019-04-05T11:00:48.015Z,38.77
2019-04-05T11:05:52.252Z,37.90
2019-04-05T11:10:54.346Z,39.67
2019-04-05T11:15:56.390Z,38.20
2019-04-05T11:21:01.424Z,39.57
2019-04-05T11:26:04.344Z,38.73
2019-04-05T11:31:06.745Z,39.63
2019-04-05T11:36:08.804Z,38.77
2019-04-05T11:41:11.163Z,41.80
2019-04-05T11:46:14.500Z,40.73
2019-04-05T11:51:16.557Z,38.13
2019-04-05T11:56:20.106Z,37.53
2019-04-05T12:01:30.138Z,38.43
2019-04-05T12:06:34.962Z,38.60
2019-04-05T12:11:36.110Z,37.10
2019-04-05T12:16:38.166Z,37.50
2019-04-05T12:21:40.244Z,40.13
2019-04-05T12:26:42.801Z,40.23
2019-04-05T12:31:45.511Z,34.83
2019-04-05T12:36:47.644Z,38.27
2019-04-05T12:41:49.742Z,38.83
2019-04-05T12:46:51.827Z,35.73
2019-04-05T12:51:53.883Z,36.33
2019-04-05T12:56:57.882Z,36.53
2019-04-05T13:01:59.974Z,37.63
2019-04-05T13:07:01.999Z,37.70
2019-04-05T13:12:04.093Z,37.83
2019-04-05T13:17:06.260Z,41.50
2019-04-05T13:22:08.327Z,40.83
2019-04-05T13:27:12.506Z,42.30
2019-04-05T13:32:17.202Z,40.53
2019-04-05T13:37:20.823Z,39.60
2019-04-05T13:42:23.070Z,44.43
2019-04-05T13:47:25.148Z,40.53
2019-04-05T13:52:27.237Z,41.73
2019-04-05T13:57:29.304Z,41.23
2019-04-05T14:02:31.374Z,41.30
2019-04-05T14:07:34.337Z,42.17
2019-04-05T14:12:37.653Z,41.77
2019-04-05T14:17:43.996Z,42.23
2019-04-05T14:22:44.683Z,41.67
2019-04-05T14:27:46.758Z,41.47
2019-04-05T14:32:51.472Z,43.37
2019-04-05T14:37:54.516Z,42.33
2019-04-05T14:42:57.523Z,43.10
2019-04-05T14:47:59.577Z,42.77
2019-04-05T14:53:02.018Z,42.67
2019-04-05T14:58:06.020Z,42.93
2019-04-05T15:03:08.430Z,40.27
2019-04-05T15:08:10.537Z,41.17
2019-04-05T15:13:12.634Z,41.63
2019-04-05T15:18:14.728Z,42.33
2019-04-05T15:23:16.824Z,43.60
2019-04-05T15:28:18.903Z,40.10
2019-04-05T15:33:21.046Z,38.93
2019-04-05T15:38:23.147Z,39.20
2019-04-05T15:43:25.236Z,40.97
2019-04-05T15:48:27.375Z,41.70
2019-04-05T15:53:32.609Z,41.43
2019-04-05T15:58:34.862Z,41.23
2019-04-05T16:03:37.097Z,39.60
2019-04-05T16:08:39.349Z,41.73
2019-04-05T16:13:41.470Z,40.53
2019-04-05T16:18:44.132Z,40.37
2019-04-05T16:23:46.332Z,41.20
2019-04-05T16:28:48.423Z,40.27
2019-04-05T16:33:50.478Z,39.07
2019-04-05T16:38:52.588Z,39.70
2019-04-05T16:43:54.676Z,38.80
2019-04-05T16:48:56.729Z,38.90
2019-04-05T16:54:03.489Z,40.43
2019-04-05T16:59:05.799Z,38.77
2019-04-05T17:04:17.867Z,38.47
2019-04-05T17:09:20.046Z,40.63
2019-04-05T17:14:23.347Z,40.60
2019-04-05T17:19:25.826Z,37.83
2019-04-05T17:24:27.957Z,38.10
2019-04-05T17:29:30.016Z,38.53
2019-04-05T17:34:32.271Z,39.83
2019-04-05T17:39:34.391Z,40.03
2019-04-05T17:44:36.873Z,40.60
2019-04-05T17:49:41.076Z,39.53
2019-04-05T17:54:43.204Z,38.47
2019-04-05T17:59:45.380Z,39.17
2019-04-05T18:04:47.484Z,37.80
2019-04-05T18:09:49.653Z,41.00
2019-04-05T18:14:51.753Z,39.03
2019-04-05T18:19:53.910Z,40.67
2019-04-05T18:24:55.974Z,41.03
2019-04-05T18:29:58.081Z,41.43
2019-04-05T18:35:00.186Z,40.17
2019-04-05T18:40:02.262Z,38.47
2019-04-05T18:45:05.272Z,39.57
2019-04-05T18:50:08.184Z,39.50
2019-04-05T18:55:10.436Z,40.40
2019-04-05T19:00:12.754Z,38.73
2019-04-05T19:05:15.087Z,43.87
2019-04-05T19:10:17.203Z,40.47
2019-04-05T19:15:19.379Z,41.50
2019-04-05T19:20:21.447Z,40.77
2019-04-05T19:25:23.534Z,39.90
2019-04-05T19:50:41.632Z,41.20
2019-04-05T19:55:43.723Z,38.57
2019-04-05T20:00:45.913Z,40.17
2019-04-05T20:05:48.017Z,41.87
2019-04-05T20:10:50.080Z,41.47
2019-04-05T20:15:52.163Z,41.23
2019-04-05T20:20:54.267Z,39.53
2019-04-05T20:25:56.351Z,40.80
2019-04-05T20:30:58.519Z,41.63
2019-04-05T20:36:00.618Z,39.83
2019-04-05T20:41:02.767Z,38.63
2019-04-05T20:46:04.853Z,37.90
2019-04-05T20:51:06.898Z,42.23
2019-04-05T20:56:09.018Z,40.47
2019-04-05T21:01:11.111Z,38.67
2019-04-05T21:06:13.222Z,40.80
2019-04-05T21:11:15.479Z,42.27
2019-04-05T21:16:17.556Z,39.73
2019-04-05T21:21:19.701Z,40.23
2019-04-05T21:26:21.784Z,38.20
2019-04-05T21:31:23.861Z,37.90
2019-04-05T21:36:25.908Z,37.90
2019-04-05T21:41:27.973Z,39.87
2019-04-05T21:46:30.026Z,37.13
2019-04-05T21:51:32.081Z,38.07
2019-04-05T21:56:34.209Z,39.20
2019-04-05T22:01:36.831Z,37.83
2019-04-05T22:06:38.865Z,37.27
2019-04-05T22:11:40.819Z,39.37
2019-04-05T22:16:42.897Z,37.23
2019-04-05T22:21:45.040Z,38.33
2019-04-05T22:26:48.333Z,37.80
2019-04-05T22:31:50.446Z,37.23
2019-04-05T22:36:52.496Z,36.47
2019-04-05T22:41:54.641Z,36.93
2019-04-05T22:46:56.732Z,39.50
2019-04-05T22:51:58.878Z,35.30
2019-04-05T22:57:01.002Z,36.60
2019-04-05T23:02:03.141Z,35.33
2019-04-05T23:07:05.290Z,38.17
2019-04-05T23:12:07.415Z,34.47
2019-04-05T23:17:09.437Z,36.30
2019-04-05T23:22:11.643Z,35.17
2019-04-05T23:27:13.715Z,35.83
2019-04-05T23:32:15.830Z,37.37
2019-04-05T23:37:17.927Z,37.30
2019-04-05T23:42:20.043Z,35.83
2019-04-05T23:47:22.128Z,37.43
2019-04-05T23:52:24.236Z,34.30
2019-04-05T23:57:26.348Z,34.33
